createdAt,value
2022-09-13T00:02:12.874Z,5.20
2022-09-13T00:04:42.459Z,5.45
2022-09-13T00:07:11.938Z,5.78
2022-09-13T00:09:41.431Z,5.47
2022-09-13T00:12:10.890Z,5.83
2022-09-13T00:14:41.121Z,5.88
2022-09-13T00:17:10.623Z,5.37
2022-09-13T00:19:40.090Z,5.53
2022-09-13T00:22:09.619Z,5.28
2022-09-13T00:24:39.155Z,5.92
2022-09-13T00:27:08.617Z,5.75
2022-09-13T00:29:38.136Z,5.33
2022-09-13T00:32:07.752Z,5.55
2022-09-13T00:34:37.258Z,5.17
2022-09-13T00:37:06.784Z,5.78
2022-09-13T00:39:36.994Z,5.15
2022-09-13T00:42:06.518Z,5.35
2022-09-13T00:44:59.729Z,5.08
2022-09-13T00:47:35.035Z,5.72
2022-09-13T00:50:10.744Z,5.50
2022-09-13T00:52:46.566Z,4.75
2022-09-13T00:55:16.435Z,4.80
2022-09-13T00:57:46.709Z,5.03
2022-09-13T01:00:19.038Z,5.20
2022-09-13T01:02:51.570Z,4.37
2022-09-13T01:05:24.216Z,4.62
2022-09-13T01:07:53.819Z,4.75
2022-09-13T01:10:23.799Z,4.80
2022-09-13T01:12:59.291Z,4.67
2022-09-13T01:15:28.758Z,4.70
2022-09-13T01:17:59.028Z,4.33
2022-09-13T01:20:31.561Z,4.42
2022-09-13T01:23:18.730Z,5.15
2022-09-13T01:26:00.176Z,4.03
2022-09-13T01:28:44.064Z,4.65
2022-09-13T01:31:16.703Z,4.33
2022-09-13T01:34:15.385Z,4.50
2022-09-13T01:36:56.661Z,4.30
2022-09-13T01:39:41.419Z,4.22
2022-09-13T01:42:25.952Z,4.10
2022-09-13T01:45:23.351Z,3.85
2022-09-13T01:48:01.713Z,4.67
2022-09-13T01:50:55.563Z,4.33
2022-09-13T01:53:39.905Z,4.50
2022-09-13T01:56:38.109Z,4.30
2022-09-13T01:59:10.630Z,4.55
2022-09-13T02:01:43.440Z,4.12
2022-09-13T02:04:28.084Z,4.42
2022-09-13T02:07:09.651Z,4.40
2022-09-13T02:09:42.189Z,4.50
2022-09-13T02:12:23.487Z,4.10
2022-09-13T02:14:56.023Z,4.62
2022-09-13T02:17:28.676Z,4.28
2022-09-13T02:20:04.393Z,4.45
2022-09-13T02:22:37.067Z,4.20
2022-09-13T02:25:42.351Z,4.17
2022-09-13T02:28:15.258Z,4.65
2022-09-13T02:33:21.147Z,4.53
2022-09-13T02:35:56.971Z,4.35
2022-09-13T02:38:38.292Z,4.30
2022-09-13T02:41:31.994Z,4.37
2022-09-13T02:44:04.804Z,4.65
2022-09-13T02:46:55.556Z,4.33
2022-09-13T02:49:51.801Z,4.10
2022-09-13T02:52:33.633Z,4.23
2022-09-13T02:55:11.780Z,4.55
2022-09-13T02:57:50.199Z,4.20
2022-09-13T03:00:19.732Z,4.17
2022-09-13T03:02:51.238Z,3.92
2022-09-13T03:05:20.776Z,4.28
2022-09-13T03:07:51.335Z,4.20
2022-09-13T03:10:20.921Z,4.10
2022-09-13T03:13:18.987Z,4.65
2022-09-13T03:16:08.915Z,4.40
2022-09-13T03:18:47.673Z,4.95
2022-09-13T03:21:39.790Z,5.10
2022-09-13T03:24:18.024Z,5.27
2022-09-13T03:27:07.208Z,5.28
2022-09-13T03:29:48.447Z,5.53
2022-09-13T03:32:26.692Z,4.90
2022-09-13T03:35:03.381Z,4.77
2022-09-13T03:37:38.874Z,5.05
2022-09-13T03:40:11.458Z,5.10
2022-09-13T03:43:00.620Z,4.42
2022-09-13T03:45:33.286Z,5.55
2022-09-13T03:48:05.617Z,4.75
2022-09-13T03:53:07.388Z,4.90
2022-09-13T03:55:44.672Z,4.65
2022-09-13T03:58:20.299Z,4.78
2022-09-13T04:00:50.248Z,4.78
2022-09-13T04:03:20.062Z,5.12
2022-09-13T04:05:50.377Z,5.28
2022-09-13T04:08:19.871Z,5.42
2022-09-13T04:10:52.360Z,4.67
2022-09-13T04:13:23.144Z,4.80
2022-09-13T04:15:52.686Z,4.97
2022-09-13T04:18:22.144Z,4.83
2022-09-13T04:21:02.273Z,5.25
2022-09-13T04:23:31.968Z,5.17
2022-09-13T04:26:07.636Z,4.72
2022-09-13T04:28:37.458Z,4.70
2022-09-13T04:31:07.028Z,5.45
2022-09-13T04:33:37.058Z,4.90
2022-09-13T04:36:06.635Z,4.87
2022-09-13T04:38:37.573Z,4.78
2022-09-13T04:41:07.399Z,4.58
2022-09-13T04:43:36.853Z,5.47
2022-09-13T04:46:06.474Z,4.72
2022-09-13T04:48:36.078Z,4.62
2022-09-13T04:53:36.220Z,4.67
2022-09-13T04:56:07.679Z,5.03
2022-09-13T04:58:37.510Z,4.10
2022-09-13T05:01:09.309Z,4.87
2022-09-13T05:03:39.545Z,4.58
2022-09-13T05:06:11.992Z,4.70
2022-09-13T05:08:41.822Z,4.63
2022-09-13T05:11:11.332Z,4.90
2022-09-13T05:13:40.789Z,4.25
2022-09-13T05:16:10.268Z,4.33
2022-09-13T05:18:49.634Z,4.30
2022-09-13T05:21:10.855Z,4.65
2022-09-13T05:23:40.349Z,4.10
2022-09-13T05:26:09.850Z,4.25
2022-09-13T05:28:39.323Z,4.85
2022-09-13T05:31:11.826Z,4.33
2022-09-13T05:33:42.927Z,5.10
2022-09-13T05:36:12.685Z,4.28
2022-09-13T05:38:42.174Z,4.37
2022-09-13T05:41:12.000Z,4.00
2022-09-13T05:43:41.589Z,4.17
2022-09-13T05:46:16.365Z,4.08
2022-09-13T05:48:46.910Z,4.28
2022-09-13T05:51:18.975Z,4.03
2022-09-13T05:53:54.749Z,4.27
2022-09-13T05:56:26.820Z,4.42
2022-09-13T05:58:56.667Z,4.33
2022-09-13T06:01:29.022Z,3.77
2022-09-13T06:04:00.713Z,3.80
2022-09-13T06:06:30.257Z,4.37
2022-09-13T06:08:59.801Z,4.03
2022-09-13T06:11:29.260Z,4.20
2022-09-13T06:13:58.939Z,4.28
2022-09-13T06:16:28.583Z,3.65
2022-09-13T06:18:59.973Z,4.40
2022-09-13T06:21:29.627Z,3.80
2022-09-13T06:23:59.316Z,3.75
2022-09-13T06:26:29.967Z,3.95
2022-09-13T06:28:59.894Z,3.85
2022-09-13T06:31:29.863Z,3.80
2022-09-13T06:34:03.133Z,3.70
2022-09-13T06:36:32.583Z,4.40
2022-09-13T06:39:02.208Z,4.75
2022-09-13T06:41:32.074Z,3.83
2022-09-13T06:44:02.648Z,5.00
2022-09-13T06:46:36.781Z,3.35
2022-09-13T06:49:08.975Z,3.60
2022-09-13T06:51:38.512Z,3.67
2022-09-13T06:54:08.028Z,3.40
2022-09-13T06:56:39.739Z,3.00
2022-09-13T06:59:11.095Z,3.75
2022-09-13T07:01:43.669Z,4.28
2022-09-13T07:04:20.096Z,3.80
2022-09-13T07:06:51.093Z,4.08
2022-09-13T07:09:22.988Z,3.45
2022-09-13T07:11:55.969Z,3.92
2022-09-13T07:14:28.838Z,3.20
2022-09-13T07:19:29.324Z,3.45
2022-09-13T07:21:59.299Z,3.47
2022-09-13T07:24:28.741Z,2.95
2022-09-13T07:26:58.255Z,3.40
2022-09-13T07:29:27.868Z,3.50
2022-09-13T07:31:58.839Z,3.58
2022-09-13T07:34:28.706Z,3.00
2022-09-13T07:36:58.136Z,2.70
2022-09-13T07:39:27.582Z,2.50
2022-09-13T07:41:57.517Z,2.50
2022-09-13T07:44:26.958Z,2.77
2022-09-13T07:46:56.397Z,3.02
2022-09-13T07:49:26.029Z,3.25
2022-09-13T07:51:55.539Z,3.12
2022-09-13T07:54:25.044Z,2.65
2022-09-13T07:56:54.513Z,3.22
2022-09-13T07:59:27.005Z,3.05
2022-09-13T08:01:55.151Z,2.67
2022-09-13T08:04:27.519Z,2.67
2022-09-13T08:06:57.020Z,2.98
2022-09-13T08:09:26.807Z,2.52
2022-09-13T08:11:57.307Z,2.87
2022-09-13T08:14:26.839Z,2.70
2022-09-13T08:16:59.366Z,3.08
2022-09-13T08:19:28.805Z,2.95
2022-09-13T08:21:58.244Z,3.02
2022-09-13T08:24:28.469Z,2.58
2022-09-13T08:26:57.894Z,2.75
2022-09-13T08:29:27.410Z,3.27
2022-09-13T08:31:56.870Z,2.60
2022-09-13T08:34:27.447Z,2.70
2022-09-13T08:36:57.004Z,2.98
2022-09-13T08:39:29.203Z,2.90
2022-09-13T08:42:03.625Z,2.65
2022-09-13T08:44:38.821Z,2.90
2022-09-13T08:47:13.969Z,2.50
2022-09-13T08:49:49.681Z,3.00
2022-09-13T08:52:31.474Z,3.12
2022-09-13T08:55:03.981Z,3.15
2022-09-13T08:57:39.392Z,2.72
2022-09-13T09:00:24.760Z,3.13
2022-09-13T09:02:59.843Z,2.73
2022-09-13T09:05:32.347Z,2.52
2022-09-13T09:08:08.126Z,3.08
2022-09-13T09:10:40.628Z,2.98
2022-09-13T09:13:16.141Z,2.87
2022-09-13T09:15:48.722Z,3.08
2022-09-13T09:18:21.385Z,3.10
2022-09-13T09:23:26.789Z,2.90
2022-09-13T09:26:20.187Z,3.00
2022-09-13T09:29:01.652Z,2.60
2022-09-13T09:31:37.711Z,2.67
2022-09-13T09:34:15.729Z,2.83
2022-09-13T09:36:54.450Z,2.33
2022-09-13T09:39:26.601Z,3.27
2022-09-13T09:41:58.141Z,2.62
2022-09-13T09:44:34.561Z,3.50
2022-09-13T09:47:16.223Z,2.42
2022-09-13T09:50:06.585Z,3.30
2022-09-13T09:52:43.252Z,2.60
2022-09-13T09:55:22.952Z,2.67
2022-09-13T09:57:55.016Z,2.70
2022-09-13T10:00:29.138Z,2.87
2022-09-13T10:03:02.106Z,3.05
2022-09-13T10:05:33.279Z,4.35
2022-09-13T10:08:05.686Z,3.05
2022-09-13T10:10:42.884Z,3.00
2022-09-13T10:13:18.543Z,2.52
2022-09-13T10:16:01.338Z,2.65
2022-09-13T10:18:43.962Z,2.95
2022-09-13T10:21:22.112Z,2.85
2022-09-13T10:23:53.510Z,2.95
2022-09-13T10:26:26.229Z,2.97
2022-09-13T10:29:10.540Z,2.58
2022-09-13T10:31:43.048Z,3.15
2022-09-13T12:23:40.686Z,2.67
2022-09-13T12:29:04.538Z,2.50
2022-09-13T12:31:34.666Z,2.47
2022-09-13T12:34:07.276Z,2.62
2022-09-13T12:36:39.782Z,2.52
2022-09-13T12:39:26.946Z,2.42
2022-09-13T12:42:21.838Z,2.80
2022-09-13T12:45:14.546Z,2.62
2022-09-13T12:48:09.406Z,2.22
2022-09-13T12:51:01.683Z,1.90
2022-09-13T12:53:39.860Z,2.27
2022-09-13T12:56:18.334Z,2.12
2022-09-13T12:58:53.870Z,1.77
2022-09-13T13:01:26.659Z,2.05
2022-09-13T13:03:59.220Z,2.27
2022-09-13T13:06:43.786Z,2.20
2022-09-13T13:09:42.633Z,2.10
2022-09-13T13:12:14.855Z,2.15
2022-09-13T13:14:47.437Z,3.25
2022-09-13T13:17:42.803Z,2.40
2022-09-13T13:20:44.744Z,2.55
2022-09-13T13:23:33.280Z,2.22
2022-09-13T13:26:07.906Z,3.00
2022-09-13T13:28:50.957Z,1.82
2022-09-13T13:31:34.041Z,1.80
2022-09-13T13:34:18.251Z,2.30
2022-09-13T13:36:51.078Z,1.82
2022-09-13T13:39:29.408Z,2.27
2022-09-13T13:42:04.863Z,2.08
2022-09-13T13:44:37.379Z,2.12
2022-09-13T13:47:18.820Z,1.92
2022-09-13T13:50:18.296Z,2.12
2022-09-13T13:52:58.928Z,2.17
2022-09-13T13:55:49.401Z,2.02
2022-09-13T13:58:50.473Z,2.47
2022-09-13T14:01:28.861Z,1.90
2022-09-13T14:04:17.824Z,2.08
2022-09-13T14:07:26.462Z,2.50
2022-09-13T14:10:32.956Z,2.25
2022-09-13T14:13:21.909Z,2.75
2022-09-13T14:16:00.607Z,2.12
2022-09-13T14:18:36.176Z,2.08
2022-09-13T14:23:36.763Z,1.98
2022-09-13T14:26:08.151Z,2.30
2022-09-13T14:28:37.845Z,2.08
2022-09-13T14:31:07.554Z,2.58
2022-09-13T14:33:38.802Z,2.50
2022-09-13T14:36:11.323Z,2.20
2022-09-13T14:38:43.847Z,1.83
2022-09-13T14:41:16.269Z,2.03
2022-09-13T14:43:47.712Z,1.92
2022-09-13T14:46:26.070Z,1.60
2022-09-13T14:49:01.387Z,1.53
2022-09-13T14:51:44.376Z,2.02
2022-09-13T14:54:19.798Z,2.55
2022-09-13T14:57:02.441Z,1.82
2022-09-13T15:04:43.035Z,2.12
2022-09-13T15:07:20.870Z,2.22
2022-09-13T15:09:51.334Z,2.20
2022-09-13T15:12:26.749Z,2.20
2022-09-13T15:18:02.345Z,2.65
2022-09-13T15:20:49.507Z,2.15
2022-09-13T15:23:21.850Z,2.93
2022-09-13T15:25:54.824Z,2.52
2022-09-13T15:28:27.957Z,2.55
2022-09-13T15:31:01.255Z,2.12
2022-09-13T15:33:34.571Z,2.12
2022-09-13T15:36:22.049Z,2.70
2022-09-13T15:39:03.728Z,2.40
2022-09-13T15:41:36.327Z,2.67
2022-09-13T15:44:09.201Z,2.25
2022-09-13T15:46:44.720Z,2.87
2022-09-13T15:49:18.183Z,2.55
2022-09-13T15:51:48.230Z,2.83
2022-09-13T15:54:19.512Z,2.25
2022-09-13T15:56:51.348Z,2.90
2022-09-13T15:59:23.113Z,2.50
2022-09-13T16:01:53.634Z,2.75
2022-09-13T16:04:23.185Z,2.77
2022-09-13T16:06:52.634Z,2.80
2022-09-13T16:09:25.266Z,2.52
2022-09-13T16:11:55.175Z,3.08
2022-09-13T16:14:25.084Z,3.03
2022-09-13T16:16:56.091Z,2.70
2022-09-13T16:19:26.451Z,3.27
2022-09-13T16:21:55.956Z,3.02
2022-09-13T16:24:25.765Z,3.10
2022-09-13T16:26:55.602Z,3.37
2022-09-13T16:29:25.176Z,2.80
2022-09-13T16:31:54.726Z,2.83
2022-09-13T16:34:26.164Z,3.08
2022-09-13T16:36:55.901Z,3.05
2022-09-13T16:39:26.049Z,3.45
2022-09-13T16:41:55.630Z,2.80
2022-09-13T16:44:25.230Z,3.20
2022-09-13T16:46:54.792Z,3.00
2022-09-13T16:49:25.956Z,3.85
2022-09-13T16:51:57.020Z,3.33
2022-09-13T16:59:27.397Z,3.67
2022-09-13T17:01:58.250Z,3.52
2022-09-13T17:04:27.773Z,3.33
2022-09-13T17:06:58.163Z,3.22
2022-09-13T17:09:27.669Z,3.35
2022-09-13T17:11:57.563Z,2.95
2022-09-13T17:14:27.316Z,3.53
2022-09-13T17:16:58.873Z,3.17
2022-09-13T17:19:33.297Z,3.62
2022-09-13T17:22:07.210Z,3.60
2022-09-13T17:24:37.318Z,3.55
2022-09-13T17:27:08.077Z,3.22
2022-09-13T17:29:38.029Z,3.47
2022-09-13T17:32:07.762Z,3.52
2022-09-13T17:34:37.265Z,3.52
2022-09-13T17:37:07.510Z,3.60
2022-09-13T17:39:36.949Z,3.17
2022-09-13T17:42:06.689Z,3.65
2022-09-13T17:44:36.833Z,3.47
2022-09-13T17:47:06.966Z,3.20
2022-09-13T17:49:36.460Z,3.50
2022-09-13T17:52:05.962Z,3.30
2022-09-13T17:54:35.410Z,4.08
2022-09-13T17:57:05.042Z,3.33
2022-09-13T17:59:34.487Z,3.60
2022-09-13T18:02:04.149Z,3.47
2022-09-13T18:04:33.784Z,3.00
2022-09-13T18:07:03.223Z,3.40
2022-09-13T18:09:32.662Z,3.67
2022-09-13T18:12:02.285Z,3.25
2022-09-13T18:14:32.986Z,3.80
2022-09-13T18:17:02.532Z,4.15
2022-09-13T18:19:45.963Z,4.42
2022-09-13T18:22:04.624Z,4.40
2022-09-13T18:24:34.210Z,4.17
2022-09-13T18:27:04.713Z,3.98
2022-09-13T18:29:34.171Z,4.08
2022-09-13T18:32:03.776Z,3.90
2022-09-13T18:34:33.316Z,3.87
2022-09-13T18:37:02.877Z,3.42
2022-09-13T18:39:32.309Z,4.22
2022-09-13T18:42:01.877Z,4.17
2022-09-13T18:44:32.962Z,3.72
2022-09-13T18:47:04.350Z,3.58
2022-09-13T18:49:33.788Z,3.93
2022-09-13T18:54:32.011Z,4.17
2022-09-13T18:57:01.518Z,4.15
2022-09-13T18:59:32.685Z,3.67
2022-09-13T19:04:32.143Z,4.33
2022-09-13T19:09:32.924Z,4.12
2022-09-13T19:12:04.483Z,4.13
2022-09-13T19:14:33.972Z,3.30
2022-09-13T19:17:05.142Z,3.42
2022-09-13T19:19:35.889Z,3.08
2022-09-13T19:22:05.822Z,3.72
2022-09-13T19:24:36.942Z,3.45
2022-09-13T19:27:06.459Z,4.30
2022-09-13T19:29:35.971Z,3.58
2022-09-13T19:32:05.934Z,3.27
2022-09-13T19:34:35.420Z,2.87
2022-09-13T19:37:04.938Z,3.30
2022-09-13T19:39:34.515Z,3.30
2022-09-13T19:42:04.109Z,3.47
2022-09-13T19:52:03.853Z,3.37
2022-09-13T19:54:33.359Z,3.15
2022-09-13T19:57:03.450Z,3.25
2022-09-13T19:59:34.512Z,3.77
2022-09-13T20:02:05.129Z,3.35
2022-09-13T20:04:34.789Z,3.72
2022-09-13T20:07:04.256Z,3.60
2022-09-13T20:09:33.803Z,3.37
2022-09-13T20:12:03.380Z,3.27
2022-09-13T20:17:03.905Z,3.42
2022-09-13T20:19:43.794Z,3.42
2022-09-13T20:22:04.721Z,3.17
2022-09-13T20:24:34.216Z,3.02
2022-09-13T20:27:03.642Z,3.15
2022-09-13T20:29:33.147Z,3.90
2022-09-13T20:32:02.853Z,3.20
2022-09-13T20:34:32.294Z,3.50
2022-09-13T20:37:01.810Z,3.90
2022-09-13T20:39:31.357Z,3.47
2022-09-13T20:42:01.075Z,3.75
2022-09-13T20:44:30.516Z,3.53
2022-09-13T20:47:01.048Z,3.37
2022-09-13T20:49:30.472Z,3.75
2022-09-13T20:52:00.088Z,3.92
2022-09-13T20:54:29.505Z,3.20
2022-09-13T20:56:59.022Z,3.65
2022-09-13T20:59:28.461Z,3.20
2022-09-13T21:01:58.054Z,3.15
2022-09-13T21:04:27.536Z,3.50
2022-09-13T21:07:15.115Z,3.20
2022-09-13T21:09:44.744Z,3.08
2022-09-13T21:12:15.589Z,3.12
2022-09-13T21:14:46.897Z,3.02
2022-09-13T21:17:16.337Z,3.62
2022-09-13T21:19:45.869Z,2.80
2022-09-13T21:22:16.386Z,3.52
2022-09-13T21:27:15.489Z,2.92
2022-09-13T21:29:45.326Z,3.62
2022-09-13T21:32:14.761Z,3.12
2022-09-13T21:34:44.261Z,3.42
2022-09-13T21:37:13.765Z,3.35
2022-09-13T21:39:43.260Z,3.30
2022-09-13T21:42:12.877Z,3.30
2022-09-13T21:44:42.319Z,3.33
2022-09-13T21:47:11.748Z,3.22
2022-09-13T21:49:43.095Z,3.55
2022-09-13T21:52:12.539Z,3.60
2022-09-13T21:54:41.986Z,3.10
2022-09-13T21:57:11.460Z,3.10
2022-09-13T21:59:40.888Z,3.33
2022-09-13T22:02:10.426Z,2.98
2022-09-13T22:04:39.955Z,3.30
2022-09-13T22:07:09.420Z,3.50
2022-09-13T22:09:38.832Z,3.37
2022-09-13T22:12:08.889Z,3.42
2022-09-13T22:14:38.376Z,3.70
2022-09-13T22:17:08.005Z,3.62
2022-09-13T22:19:37.418Z,3.60
2022-09-13T22:22:06.995Z,3.20
2022-09-13T22:24:36.617Z,3.17
2022-09-13T22:27:07.365Z,3.45
2022-09-13T22:29:36.935Z,3.47
2022-09-13T22:32:06.574Z,2.90
2022-09-13T22:34:36.074Z,2.95
2022-09-13T22:37:05.526Z,3.30
2022-09-13T22:39:34.998Z,3.37
2022-09-13T22:42:04.546Z,3.60
2022-09-13T22:44:34.890Z,3.35
2022-09-13T22:47:04.459Z,3.00
2022-09-13T22:49:33.884Z,3.40
2022-09-13T22:52:03.491Z,3.05
2022-09-13T22:54:32.926Z,3.60
2022-09-13T22:57:02.370Z,2.70
2022-09-13T22:59:31.856Z,3.23
2022-09-13T23:02:02.478Z,3.90
2022-09-13T23:04:32.191Z,3.27
2022-09-13T23:07:01.707Z,3.62
2022-09-13T23:09:31.155Z,4.08
2022-09-13T23:14:29.299Z,3.30
2022-09-13T23:16:58.855Z,4.17
2022-09-13T23:19:30.199Z,3.85
2022-09-13T23:21:59.674Z,3.70
2022-09-13T23:24:29.193Z,4.12
2022-09-13T23:27:00.753Z,3.12
2022-09-13T23:29:31.290Z,3.80
2022-09-13T23:32:01.041Z,3.00
2022-09-13T23:34:30.530Z,3.25
2022-09-13T23:37:00.096Z,2.20
2022-09-13T23:39:29.610Z,2.67
2022-09-13T23:41:59.120Z,3.00
2022-09-13T23:44:29.369Z,3.00
2022-09-13T23:46:59.772Z,2.70
2022-09-13T23:49:29.237Z,3.00
2022-09-13T23:51:58.671Z,2.90
2022-09-13T23:54:28.183Z,2.80
2022-09-13T23:56:57.633Z,3.05
2022-09-13T23:59:27.070Z,3.20
